Time;durP1;ratioP1;P1;durP2;ratioP2;P2;SDS_P1;SDS_P2;PMS_P1;PMS_P2;Temp;Humidity;BMP_temperature;BMP_pressure;BME280_temperature;BME280_humidity;BME280_pressure;Samples;Min_cycle;Max_cycle;Signal;HPM_P1;HPM_P2
2022/03/14 00:02:08;;;;;;;7.17;4.90;;;9.30;73.00;;;;;;4883714;29;20041;-88
2022/03/14 00:04:38;;;;;;;10.27;4.67;;;9.30;73.60;;;;;;4874821;29;20059;-88
2022/03/14 00:07:05;;;;;;;8.88;4.68;;;9.40;74.10;;;;;;4852411;29;20457;-88
2022/03/14 00:09:30;;;;;;;;;;;9.40;74.50;;;;;;4870129;29;20104;-88
2022/03/14 00:11:57;;;;;;;8.10;5.32;;;9.50;77.60;;;;;;4872051;29;19924;-88
2022/03/14 00:14:26;;;;;;;8.82;4.90;;;9.50;74.80;;;;;;4868250;29;20416;-84
2022/03/14 00:16:52;;;;;;;5.95;4.82;;;9.60;75.40;;;;;;4872807;29;20053;-88
2022/03/14 00:19:20;;;;;;;4.85;3.95;;;9.60;75.40;;;;;;4878207;29;20044;-88
2022/03/14 00:21:46;;;;;;;7.50;5.10;;;9.60;76.10;;;;;;4861910;29;20174;-88
2022/03/14 00:24:13;;;;;;;6.97;4.45;;;9.60;76.60;;;;;;4865126;29;20515;-88
2022/03/14 00:26:39;;;;;;;7.17;4.77;;;9.60;76.70;;;;;;4868971;29;20052;-87
2022/03/14 00:29:09;;;;;;;8.57;4.35;;;9.60;77.30;;;;;;4891487;29;20500;-88
2022/03/14 00:31:35;;;;;;;7.00;4.57;;;9.60;77.60;;;;;;4871161;29;20103;-87
2022/03/14 00:34:02;;;;;;;10.23;5.32;;;9.60;77.70;;;;;;4862168;29;20389;-89
2022/03/14 00:36:27;;;;;;;7.47;4.47;;;9.60;78.10;;;;;;4886907;29;20052;-84
2022/03/14 00:38:54;;;;;;;5.53;4.47;;;9.50;78.40;;;;;;4871020;29;20045;-88
2022/03/14 00:41:20;;;;;;;5.68;3.80;;;9.50;78.70;;;;;;4867676;29;20052;-88
2022/03/14 00:43:46;;;;;;;4.78;3.72;;;9.50;78.80;;;;;;4871512;29;20052;-88
2022/03/14 00:46:16;;;;;;;6.78;4.18;;;9.50;79.10;;;;;;4886870;29;20068;-88
2022/03/14 00:48:42;;;;;;;7.05;4.03;;;10.00;80.10;;;;;;4866429;29;20057;-88
2022/03/14 00:51:08;;;;;;;9.27;4.45;;;9.60;79.80;;;;;;4870921;29;20104;-87
2022/03/14 00:53:35;;;;;;;6.07;4.60;;;9.50;80.10;;;;;;4873915;29;20053;-87
2022/03/14 00:56:01;;;;;;;8.18;5.13;;;9.50;80.40;;;;;;4874868;29;20374;-88
2022/03/14 00:58:28;;;;;;;9.07;5.03;;;9.50;80.40;;;;;;4834831;29;20123;-88
2022/03/14 01:00:54;;;;;;;7.47;5.25;;;9.50;80.80;;;;;;4866098;29;20061;-87
2022/03/14 01:03:20;;;;;;;7.90;5.53;;;9.50;80.90;;;;;;4874720;29;20055;-87
2022/03/14 01:05:45;;;;;;;8.83;4.93;;;9.50;81.40;;;;;;4886439;29;20059;-88
2022/03/14 01:08:12;;;;;;;8.07;4.40;;;9.50;81.60;;;;;;4885588;29;20049;-88
2022/03/14 01:10:38;;;;;;;6.57;4.40;;;9.50;81.70;;;;;;4849723;29;20045;-88
2022/03/14 01:13:04;;;;;;;5.63;3.93;;;9.40;81.90;;;;;;4854851;29;20041;-87
2022/03/14 01:15:32;;;;;;;8.13;4.03;;;9.40;82.30;;;;;;4871407;29;20059;-88
2022/03/14 01:17:58;;;;;;;6.28;4.75;;;9.40;82.20;;;;;;4878990;29;20064;-86
2022/03/14 01:20:25;;;;;;;7.07;4.43;;;9.40;82.60;;;;;;4864346;29;20067;-89
2022/03/14 01:22:54;;;;;;;6.57;4.75;;;9.40;82.80;;;;;;4866790;29;20049;-87
2022/03/14 01:25:21;;;;;;;4.25;3.58;;;9.40;83.10;;;;;;4880989;29;20576;-88
2022/03/14 01:27:46;;;;;;;6.82;4.45;;;9.40;83.50;;;;;;4854607;29;20377;-88
2022/03/14 01:30:14;;;;;;;4.17;3.13;;;9.40;83.80;;;;;;4874161;29;20048;-88
2022/03/14 01:32:40;;;;;;;9.48;4.25;;;9.40;84.10;;;;;;4870287;29;20053;-87
2022/03/14 01:35:06;;;;;;;6.23;3.63;;;9.40;84.20;;;;;;4867452;29;20504;-88
2022/03/14 01:37:32;;;;;;;4.82;3.10;;;9.40;84.70;;;;;;4870202;29;20405;-88
2022/03/14 01:39:58;;;;;;;4.40;3.13;;;9.40;84.80;;;;;;4866739;29;20113;-88
2022/03/14 01:42:24;;;;;;;4.03;3.50;;;9.50;85.10;;;;;;4852596;29;20041;-87
2022/03/14 01:44:49;;;;;;;3.63;3.10;;;9.50;85.20;;;;;;4852241;29;20683;-87
2022/03/14 01:47:15;;;;;;;5.27;3.90;;;9.50;85.60;;;;;;4870251;29;20071;-88
2022/03/14 01:49:42;;;;;;;4.40;2.80;;;9.50;86.00;;;;;;4855122;29;20045;-86
2022/03/14 01:52:08;;;;;;;4.35;3.25;;;9.50;85.90;;;;;;4852716;29;20051;-88
2022/03/14 01:54:34;;;;;;;6.53;3.40;;;9.50;86.10;;;;;;4850879;29;20044;-88
2022/03/14 01:57:00;;;;;;;5.55;3.63;;;9.50;86.40;;;;;;4865170;29;20302;-88
2022/03/14 01:59:28;;;;;;;4.67;3.27;;;9.40;86.70;;;;;;4888291;29;20417;-88
2022/03/14 02:01:59;;;;;;;5.30;3.40;;;9.50;87.20;;;;;;4867651;29;20488;-85
2022/03/14 02:04:24;;;;;;;4.30;3.55;;;9.50;87.40;;;;;;4883344;29;20092;-88
2022/03/14 02:06:54;;;;;;;5.93;3.27;;;9.50;87.50;;;;;;4853954;29;20489;-88
2022/03/14 02:09:23;;;;;;;3.97;3.58;;;9.50;87.70;;;;;;4887811;29;20450;-87
2022/03/14 02:11:55;;;;;;;4.70;3.15;;;9.40;88.00;;;;;;4873098;29;20432;-88
2022/03/14 02:14:21;;;;;;;5.00;3.55;;;9.50;88.50;;;;;;4881428;29;20159;-88
2022/03/14 02:16:47;;;;;;;4.75;3.25;;;9.40;88.50;;;;;;4889532;29;20049;-87
2022/03/14 02:19:13;;;;;;;3.93;2.97;;;9.40;88.60;;;;;;4892406;29;20049;-87
2022/03/14 02:21:39;;;;;;;5.75;3.45;;;9.40;88.80;;;;;;4861187;29;20397;-88
2022/03/14 02:24:05;;;;;;;7.20;3.13;;;9.40;89.00;;;;;;4858242;29;20061;-87
2022/03/14 02:26:31;;;;;;;3.67;2.70;;;9.40;89.10;;;;;;4874086;29;20112;-87
2022/03/14 02:28:58;;;;;;;5.37;3.27;;;9.40;89.50;;;;;;4829953;29;20792;-88
2022/03/14 02:31:24;;;;;;;3.30;2.90;;;9.40;89.60;;;;;;4863139;29;20045;-87
2022/03/14 02:33:50;;;;;;;3.47;2.83;;;9.30;90.00;;;;;;4866151;29;20060;-88
2022/03/14 02:36:15;;;;;;;4.63;3.10;;;9.30;89.80;;;;;;4881554;29;20037;-87
2022/03/14 02:38:43;;;;;;;3.50;2.80;;;9.30;90.00;;;;;;4871348;29;20329;-88
2022/03/14 02:41:10;;;;;;;7.57;3.08;;;9.30;90.00;;;;;;4871426;29;20045;-86
2022/03/14 02:43:36;;;;;;;3.50;2.58;;;9.30;90.10;;;;;;4866794;29;20069;-88
2022/03/14 02:46:02;;;;;;;5.72;4.13;;;9.30;90.30;;;;;;4867827;29;20085;-85
2022/03/14 02:48:28;;;;;;;4.40;2.53;;;9.30;90.30;;;;;;4870625;29;20095;-88
2022/03/14 02:50:54;;;;;;;4.57;2.57;;;9.30;90.60;;;;;;4866724;29;20053;-87
2022/03/14 02:53:21;;;;;;;4.83;2.10;;;9.30;90.70;;;;;;4879494;29;20053;-87
2022/03/14 02:55:46;;;;;;;;;;;9.20;90.70;;;;;;4872757;29;20103;-87
2022/03/14 02:58:12;;;;;;;2.67;2.10;;;9.20;92.40;;;;;;4849933;29;19927;-88
2022/03/14 03:00:38;;;;;;;4.10;2.07;;;9.20;90.90;;;;;;4871721;29;20071;-86
2022/03/14 03:03:06;;;;;;;3.17;2.40;;;9.20;91.10;;;;;;4861052;29;20073;-87
2022/03/14 03:05:32;;;;;;;2.70;2.13;;;9.20;91.20;;;;;;4891449;29;20049;-87
2022/03/14 03:08:04;;;;;;;3.42;1.98;;;9.20;91.20;;;;;;4873959;29;20063;-87
2022/03/14 03:10:31;;;;;;;2.50;2.00;;;9.20;91.40;;;;;;4870203;29;20045;-87
2022/03/14 03:12:57;;;;;;;3.90;2.78;;;9.20;91.50;;;;;;4865737;29;20053;-86
2022/03/14 03:15:24;;;;;;;4.80;2.13;;;9.20;91.70;;;;;;4879770;29;20052;-87
2022/03/14 03:17:51;;;;;;;3.22;1.38;;;9.20;91.80;;;;;;4856047;29;20056;-88
2022/03/14 03:20:17;;;;;;;2.33;2.08;;;9.30;91.90;;;;;;4873103;29;20052;-88
2022/03/14 03:22:43;;;;;;;2.57;2.07;;;9.30;92.10;;;;;;4866886;29;20548;-88
2022/03/14 03:25:09;;;;;;;2.67;1.77;;;9.30;92.20;;;;;;4869302;29;20045;-87
2022/03/14 03:27:36;;;;;;;1.80;1.67;;;9.40;92.30;;;;;;4867699;29;20127;-88
2022/03/14 03:30:03;;;;;;;2.38;1.73;;;9.30;92.40;;;;;;4865347;29;20044;-88
2022/03/14 03:32:29;;;;;;;1.85;1.60;;;9.40;92.50;;;;;;4855488;29;20059;-87
2022/03/14 03:34:55;;;;;;;1.97;1.73;;;9.40;92.40;;;;;;4868762;29;20049;-83
2022/03/14 03:37:20;;;;;;;3.17;1.87;;;9.40;92.60;;;;;;4870111;29;20044;-88
2022/03/14 03:39:46;;;;;;;2.90;1.93;;;9.40;92.60;;;;;;4882416;29;20393;-88
2022/03/14 03:42:12;;;;;;;2.47;1.73;;;9.40;93.00;;;;;;4876247;29;20564;-87
2022/03/14 03:44:37;;;;;;;1.63;1.53;;;9.50;92.90;;;;;;4885147;29;20041;-86
2022/03/14 03:47:04;;;;;;;2.30;2.07;;;9.40;92.80;;;;;;4875121;29;20044;-87
2022/03/14 03:49:30;;;;;;;1.85;1.50;;;9.40;93.20;;;;;;4867698;29;20045;-87
2022/03/14 03:51:56;;;;;;;1.55;1.35;;;9.40;93.10;;;;;;4856574;29;20496;-87
2022/03/14 03:54:21;;;;;;;1.43;1.33;;;9.40;93.20;;;;;;4869965;29;20052;-87
2022/03/14 03:56:48;;;;;;;3.07;1.67;;;9.40;93.30;;;;;;4891296;29;20053;-87
2022/03/14 03:59:14;;;;;;;2.80;1.70;;;9.40;93.30;;;;;;4862073;29;20091;-87
2022/03/14 04:01:41;;;;;;;3.65;2.08;;;9.30;93.40;;;;;;4878727;29;20042;-88
2022/03/14 04:04:07;;;;;;;1.77;1.55;;;9.30;93.60;;;;;;4889717;29;20100;-88
2022/03/14 04:06:34;;;;;;;2.87;1.60;;;9.30;93.70;;;;;;4851063;29;20053;-86
2022/03/14 04:09:03;;;;;;;3.65;2.13;;;9.30;93.80;;;;;;4867882;29;20049;-83
2022/03/14 04:11:29;;;;;;;2.20;1.48;;;9.30;93.90;;;;;;4875408;29;20048;-88
2022/03/14 04:13:57;;;;;;;2.37;1.63;;;9.30;94.00;;;;;;4866977;29;20057;-87
2022/03/14 04:16:24;;;;;;;2.88;1.75;;;9.30;94.20;;;;;;4849538;29;20053;-87
2022/03/14 04:18:50;;;;;;;2.95;2.38;;;9.30;94.20;;;;;;4866597;29;20519;-87
2022/03/14 04:21:16;;;;;;;1.60;1.47;;;9.30;94.30;;;;;;4850870;29;20050;-87
2022/03/14 04:23:43;;;;;;;1.98;1.30;;;9.30;94.50;;;;;;4867843;29;20044;-86
2022/03/14 04:26:09;;;;;;;2.67;2.10;;;9.30;94.40;;;;;;4864997;29;20060;-87
2022/03/14 04:28:36;;;;;;;3.50;1.60;;;9.20;94.50;;;;;;4853352;29;20048;-87
2022/03/14 04:31:04;;;;;;;2.33;1.48;;;9.30;94.80;;;;;;4866772;29;20093;-87
2022/03/14 04:33:30;;;;;;;1.60;1.40;;;9.40;94.80;;;;;;4867171;29;20047;-87
2022/03/14 04:35:57;;;;;;;1.97;1.57;;;9.20;94.80;;;;;;4866506;29;20127;-87
2022/03/14 04:38:24;;;;;;;2.60;1.48;;;9.20;94.90;;;;;;4873083;29;20452;-88
2022/03/14 04:40:50;;;;;;;;;;;9.20;95.10;;;;;;4864815;29;20452;-88
2022/03/14 04:43:16;;;;;;;1.90;1.48;;;9.20;96.30;;;;;;4870927;29;19927;-88
2022/03/14 04:45:41;;;;;;;1.37;1.27;;;9.20;95.10;;;;;;4894074;29;20144;-88
2022/03/14 04:48:07;;;;;;;1.97;1.73;;;9.20;95.40;;;;;;4879394;29;20048;-84
2022/03/14 04:50:37;;;;;;;3.13;1.90;;;9.30;95.40;;;;;;4849313;29;20056;-88
2022/03/14 04:53:03;;;;;;;2.38;1.48;;;9.20;95.50;;;;;;4866405;29;20052;-88
2022/03/14 04:55:29;;;;;;;1.92;1.58;;;9.30;95.50;;;;;;4875652;29;20084;-87
2022/03/14 04:57:55;;;;;;;2.03;1.23;;;9.30;96.10;;;;;;4881409;29;20041;-87
2022/03/14 05:00:22;;;;;;;3.17;1.97;;;9.30;95.80;;;;;;4869292;29;20057;-87
2022/03/14 05:02:47;;;;;;;1.77;1.58;;;9.20;95.80;;;;;;4865261;29;20045;-87
2022/03/14 05:05:13;;;;;;;3.03;1.37;;;9.20;95.90;;;;;;4886694;29;20108;-87
2022/03/14 05:07:40;;;;;;;1.50;1.40;;;9.20;96.20;;;;;;4878962;29;20049;-86
2022/03/14 05:10:06;;;;;;;;;;;9.20;96.10;;;;;;4872422;29;20128;-88
2022/03/14 05:12:34;;;;;;;2.45;1.38;;;9.20;97.90;;;;;;4870850;29;20855;-87
2022/03/14 05:15:00;;;;;;;1.60;1.48;;;9.20;96.80;;;;;;4869067;29;20045;-87
2022/03/14 05:17:30;;;;;;;2.78;1.65;;;9.20;96.50;;;;;;4887504;29;20056;-87
2022/03/14 05:19:56;;;;;;;1.80;1.60;;;9.20;96.80;;;;;;4862889;29;20084;-87
2022/03/14 05:22:22;;;;;;;2.38;1.65;;;9.20;96.80;;;;;;4887630;29;20049;-87
2022/03/14 05:24:48;;;;;;;1.53;1.43;;;9.20;97.00;;;;;;4872075;29;20378;-88
2022/03/14 05:27:14;;;;;;;1.75;1.60;;;9.30;97.10;;;;;;4870775;29;20049;-82
2022/03/14 05:29:40;;;;;;;2.17;1.63;;;9.20;97.40;;;;;;4868989;29;20084;-86
2022/03/14 05:32:06;;;;;;;4.40;2.00;;;9.30;97.50;;;;;;4885910;29;20041;-87
2022/03/14 05:34:32;;;;;;;1.63;1.50;;;9.30;97.60;;;;;;4870555;29;20104;-88
2022/03/14 05:36:58;;;;;;;2.67;1.33;;;9.40;97.60;;;;;;4894193;29;20041;-87
2022/03/14 05:39:24;;;;;;;1.88;1.48;;;9.30;97.80;;;;;;4873229;29;20128;-87
2022/03/14 05:41:49;;;;;;;1.70;1.60;;;9.20;98.00;;;;;;4864245;29;20131;-87
2022/03/14 05:44:15;;;;;;;1.50;1.40;;;9.20;98.30;;;;;;4884852;29;20048;-83
2022/03/14 05:46:41;;;;;;;2.00;1.60;;;9.20;98.40;;;;;;4887599;29;20053;-87
2022/03/14 05:49:06;;;;;;;2.60;1.33;;;9.20;99.00;;;;;;4868970;29;20071;-88
2022/03/14 05:51:36;;;;;;;2.23;1.60;;;9.20;99.10;;;;;;4863502;29;20087;-86
2022/03/14 05:54:03;;;;;;;2.25;1.70;;;9.10;99.10;;;;;;4850158;29;20083;-87
2022/03/14 05:56:28;;;;;;;2.88;1.77;;;9.10;99.60;;;;;;4865871;29;20462;-87
2022/03/14 05:58:54;;;;;;;2.30;1.70;;;9.10;99.90;;;;;;4884484;29;20131;-88
2022/03/14 06:01:22;;;;;;;2.67;1.83;;;9.10;99.90;;;;;;4865319;29;20041;-83
2022/03/14 06:03:49;;;;;;;2.17;1.98;;;9.10;99.90;;;;;;4868075;29;20485;-88
2022/03/14 06:06:15;;;;;;;2.15;1.83;;;9.00;99.90;;;;;;4869026;29;20057;-88
2022/03/14 06:08:41;;;;;;;3.97;2.23;;;9.00;99.90;;;;;;4888784;29;20118;-87
2022/03/14 06:11:08;;;;;;;3.07;1.77;;;9.00;99.90;;;;;;4870418;29;20049;-88
2022/03/14 06:13:34;;;;;;;2.25;1.90;;;8.90;99.90;;;;;;4876074;29;20044;-88
2022/03/14 06:15:59;;;;;;;3.63;1.90;;;8.90;99.90;;;;;;4870060;29;20063;-87
2022/03/14 06:18:25;;;;;;;3.30;2.07;;;8.90;99.90;;;;;;4848182;29;20067;-87
2022/03/14 06:20:51;;;;;;;2.47;2.20;;;8.90;99.90;;;;;;4884401;29;20067;-85
2022/03/14 06:23:17;;;;;;;2.37;2.00;;;8.80;99.90;;;;;;4861138;29;20104;-88
2022/03/14 06:25:43;;;;;;;2.88;2.20;;;9.10;99.90;;;;;;4854084;29;20041;-87
2022/03/14 06:28:09;;;;;;;2.83;2.57;;;8.80;99.90;;;;;;4863918;29;20048;-90
2022/03/14 06:30:35;;;;;;;3.07;2.10;;;8.80;99.90;;;;;;4864762;29;20105;-86
2022/03/14 06:33:06;;;;;;;3.28;2.25;;;9.00;99.90;;;;;;4847747;29;20182;-87
2022/03/14 06:35:32;;;;;;;3.50;2.05;;;8.70;99.90;;;;;;4860530;29;20049;-86
2022/03/14 06:38:04;;;;;;;3.13;2.33;;;8.70;99.90;;;;;;4875082;29;20040;-88
2022/03/14 06:40:32;;;;;;;2.50;1.95;;;8.60;99.90;;;;;;4851904;29;20054;-91
2022/03/14 06:42:59;;;;;;;2.35;2.15;;;8.60;99.90;;;;;;4867033;29;20056;-87
2022/03/14 06:45:24;;;;;;;3.90;2.08;;;8.50;99.90;;;;;;4835987;29;20053;-88
2022/03/14 06:48:00;;;;;;;4.70;2.87;;;8.60;99.90;;;;;;4882107;29;20403;-87
2022/03/14 06:50:26;;;;;;;2.30;2.10;;;8.60;99.90;;;;;;4838277;29;20104;-88
2022/03/14 06:52:51;;;;;;;2.55;2.30;;;8.50;99.90;;;;;;4832426;29;20559;-87
2022/03/14 06:55:22;;;;;;;2.60;2.17;;;8.50;99.90;;;;;;4879391;29;20053;-87
2022/03/14 06:58:09;;;;;;;3.08;2.22;;;8.50;99.90;;;;;;4848550;29;20055;-87
2022/03/14 07:04:16;;;;;;;;;;;8.50;99.90;;;;;;4861607;29;20092;-87
2022/03/14 07:06:42;;;;;;;3.45;2.20;;;7.70;99.90;;;;;;4860442;29;19971;-86
2022/03/14 07:09:10;;;;;;;6.75;2.10;;;8.30;99.90;;;;;;4860653;29;20136;-91
2022/03/14 07:11:36;;;;;;;4.68;2.33;;;8.40;99.90;;;;;;4835082;29;20052;-91
2022/03/14 07:14:04;;;;;;;5.60;2.53;;;8.40;99.90;;;;;;4856165;29;20314;-86
2022/03/14 07:16:58;;;;;;;3.63;2.50;;;8.40;99.90;;;;;;4863064;29;20072;-92
2022/03/14 07:19:24;;;;;;;3.47;2.50;;;8.40;99.90;;;;;;4880622;29;20053;-87
2022/03/14 07:21:49;;;;;;;3.70;2.30;;;8.40;99.90;;;;;;4874300;29;20063;-88
2022/03/14 07:24:15;;;;;;;3.37;2.57;;;8.40;99.90;;;;;;4868930;29;20061;-86
2022/03/14 07:26:54;;;;;;;;;;;;;;;;;;;;;
2022/03/14 07:29:27;;;;;;;2.80;2.40;;;8.40;99.90;;;;;;4866387;29;20049;-89
2022/03/14 07:31:53;;;;;;;2.20;2.00;;;8.40;99.90;;;;;;4880071;29;20044;-92
2022/03/14 07:34:19;;;;;;;4.37;2.73;;;8.40;99.90;;;;;;4868171;29;20049;-88
2022/03/14 07:36:45;;;;;;;4.50;2.63;;;8.40;99.90;;;;;;4866638;29;20076;-90
2022/03/14 07:39:11;;;;;;;3.50;2.33;;;8.50;99.90;;;;;;4886223;29;20053;-90
2022/03/14 07:41:36;;;;;;;4.17;2.80;;;8.50;99.90;;;;;;4875867;29;20060;-86
2022/03/14 07:44:03;;;;;;;4.00;3.37;;;8.50;99.90;;;;;;4891009;29;20063;-90
2022/03/14 07:46:29;;;;;;;4.35;2.92;;;8.50;99.90;;;;;;4872110;29;20049;-90
2022/03/14 07:48:55;;;;;;;4.40;2.70;;;8.50;99.90;;;;;;4871127;29;20065;-88
2022/03/14 07:51:21;;;;;;;3.35;2.40;;;8.50;99.90;;;;;;4872132;29;20049;-90
2022/03/14 07:53:46;;;;;;;3.93;3.03;;;8.50;99.90;;;;;;4870256;29;20124;-90
2022/03/14 07:56:13;;;;;;;8.80;3.73;;;8.50;99.90;;;;;;4878376;29;20054;-91
2022/03/14 07:58:41;;;;;;;3.00;2.50;;;8.50;99.90;;;;;;4859156;29;20139;-86
2022/03/14 08:01:06;;;;;;;2.67;2.45;;;8.50;99.90;;;;;;4874428;29;20544;-88
2022/03/14 08:03:32;;;;;;;4.70;3.07;;;8.50;99.90;;;;;;4851952;29;20071;-89
2022/03/14 08:06:02;;;;;;;6.70;3.23;;;8.60;99.90;;;;;;4887351;29;20068;-89
2022/03/14 08:08:28;;;;;;;3.95;3.05;;;8.60;99.90;;;;;;4872462;29;20057;-89
2022/03/14 08:10:54;;;;;;;4.27;3.50;;;8.60;99.90;;;;;;4872821;29;20074;-86
2022/03/14 08:13:20;;;;;;;4.00;2.55;;;8.60;99.90;;;;;;4881440;29;20049;-89
2022/03/14 08:15:46;;;;;;;6.75;3.97;;;8.60;99.90;;;;;;4874534;29;20047;-90
2022/03/14 08:18:13;;;;;;;4.13;2.80;;;8.70;99.90;;;;;;4870115;29;20140;-90
2022/03/14 08:20:39;;;;;;;4.22;3.40;;;8.60;99.90;;;;;;4830483;29;20132;-88
2022/03/14 08:23:06;;;;;;;5.30;2.65;;;8.60;99.90;;;;;;4860711;29;20560;-90
2022/03/14 08:25:34;;;;;;;3.65;2.92;;;8.70;99.90;;;;;;4880924;29;20069;-90
2022/03/14 08:28:00;;;;;;;6.32;3.83;;;8.70;99.90;;;;;;4862278;29;20036;-90
2022/03/14 08:30:27;;;;;;;4.73;3.57;;;8.70;99.90;;;;;;4871911;29;20033;-91
2022/03/14 08:32:55;;;;;;;3.95;2.92;;;8.70;99.90;;;;;;4877506;29;20045;-90
2022/03/14 08:35:21;;;;;;;3.95;3.10;;;8.70;99.90;;;;;;4862958;29;20056;-90
2022/03/14 08:37:50;;;;;;;4.73;3.63;;;8.70;99.90;;;;;;4870424;29;20048;-90
2022/03/14 08:40:20;;;;;;;3.65;3.05;;;8.70;99.90;;;;;;4855409;29;20373;-89
2022/03/14 08:42:46;;;;;;;4.82;3.38;;;8.70;99.90;;;;;;4857293;29;20048;-84
2022/03/14 08:45:13;;;;;;;6.45;4.03;;;8.80;99.90;;;;;;4873244;29;20048;-87
2022/03/14 08:47:39;;;;;;;;;;;8.80;99.90;;;;;;4877304;29;20492;-91
2022/03/14 08:50:07;;;;;;;3.40;2.60;;;8.80;99.90;;;;;;4871875;29;19942;-89
2022/03/14 08:52:34;;;;;;;6.07;3.97;;;8.80;99.90;;;;;;4872841;29;20381;-93
2022/03/14 08:55:00;;;;;;;6.75;4.10;;;8.80;99.90;;;;;;4870414;29;20041;-90
2022/03/14 08:57:26;;;;;;;3.93;3.47;;;8.80;99.90;;;;;;4867554;29;20053;-91
2022/03/14 08:59:52;;;;;;;4.20;2.93;;;8.80;99.90;;;;;;4875772;29;20131;-91
2022/03/14 09:02:18;;;;;;;3.08;2.72;;;8.80;99.90;;;;;;4867547;29;20208;-87
2022/03/14 09:04:44;;;;;;;5.50;3.37;;;8.90;99.90;;;;;;4888171;29;21734;-89
2022/03/14 09:07:10;;;;;;;4.87;3.50;;;8.90;99.90;;;;;;4869077;29;20083;-90
2022/03/14 09:09:36;;;;;;;8.55;4.10;;;8.90;99.90;;;;;;4858267;29;20044;-91
2022/03/14 09:12:02;;;;;;;4.47;3.50;;;8.90;99.90;;;;;;4877022;29;20045;-90
2022/03/14 09:14:30;;;;;;;5.20;4.05;;;9.00;99.90;;;;;;4868040;29;20127;-90
2022/03/14 09:16:57;;;;;;;9.00;4.43;;;9.00;99.90;;;;;;4848059;29;20049;-90
2022/03/14 09:19:23;;;;;;;4.53;3.70;;;9.00;99.90;;;;;;4833178;29;20049;-89
2022/03/14 09:21:49;;;;;;;5.20;4.28;;;9.00;99.90;;;;;;4878700;29;20041;-92
2022/03/14 09:24:14;;;;;;;6.83;3.80;;;9.00;99.90;;;;;;4872717;29;20064;-89
2022/03/14 09:26:40;;;;;;;5.77;3.97;;;9.00;99.90;;;;;;4866047;29;20044;-89
2022/03/14 09:29:06;;;;;;;6.73;4.40;;;9.00;99.90;;;;;;4891344;29;20045;-90
2022/03/14 09:31:32;;;;;;;6.68;4.45;;;9.00;99.90;;;;;;4874376;29;20516;-90
2022/03/14 09:33:58;;;;;;;5.53;4.30;;;9.00;99.90;;;;;;4856153;29;20057;-89
2022/03/14 09:36:24;;;;;;;6.80;4.45;;;9.00;99.90;;;;;;4872180;29;20052;-92
2022/03/14 09:38:50;;;;;;;6.40;4.47;;;9.00;99.90;;;;;;4856389;29;20114;-91
2022/03/14 09:41:18;;;;;;;7.60;5.47;;;9.00;99.90;;;;;;4871343;29;20446;-89
2022/03/14 09:43:47;;;;;;;10.82;6.00;;;9.00;99.90;;;;;;4879803;29;20409;-91
2022/03/14 09:46:14;;;;;;;9.63;6.30;;;8.90;99.90;;;;;;4835089;29;20053;-91
2022/03/14 09:48:47;;;;;;;10.75;5.57;;;8.90;99.90;;;;;;4840539;29;20109;-92
2022/03/14 09:51:13;;;;;;;7.53;5.97;;;8.90;99.90;;;;;;4844841;29;20132;-91
2022/03/14 09:53:39;;;;;;;9.57;6.53;;;8.90;99.90;;;;;;4871996;29;20083;-91
2022/03/14 09:56:07;;;;;;;13.80;7.47;;;8.90;99.90;;;;;;4878507;29;20095;-91
2022/03/14 09:58:33;;;;;;;16.33;7.23;;;8.80;99.90;;;;;;4848109;29;20098;-91
2022/03/14 10:01:00;;;;;;;8.33;6.23;;;8.80;99.90;;;;;;4862326;29;20060;-86
2022/03/14 10:03:26;;;;;;;13.90;7.10;;;8.80;99.90;;;;;;4864699;29;20412;-91
2022/03/14 10:05:51;;;;;;;8.70;6.40;;;8.70;99.90;;;;;;4863712;29;20064;-91
2022/03/14 10:08:18;;;;;;;8.47;5.93;;;8.70;99.90;;;;;;4852108;29;20293;-91
2022/03/14 10:10:43;;;;;;;10.30;7.03;;;8.70;99.90;;;;;;4861597;29;20060;-88
2022/03/14 10:13:11;;;;;;;12.23;6.97;;;8.70;99.90;;;;;;4886754;29;20037;-92
2022/03/14 10:15:40;;;;;;;8.88;5.75;;;8.70;99.90;;;;;;4862785;29;20048;-91
2022/03/14 10:18:15;;;;;;;11.23;5.63;;;8.60;99.90;;;;;;4860862;29;20151;-88
2022/03/14 10:20:58;;;;;;;8.25;6.00;;;8.70;99.90;;;;;;4863333;29;20049;-93
2022/03/14 10:23:43;;;;;;;9.43;5.90;;;9.30;99.90;;;;;;4842605;29;20057;-92
2022/03/14 10:26:16;;;;;;;9.45;5.25;;;8.70;99.90;;;;;;4861831;29;20046;-93
2022/03/14 10:28:42;;;;;;;7.97;5.88;;;8.70;99.90;;;;;;4845848;29;20042;-89
2022/03/14 10:31:08;;;;;;;9.38;6.20;;;8.70;99.90;;;;;;4870198;29;20045;-91
2022/03/14 10:33:34;;;;;;;9.07;5.40;;;8.70;99.90;;;;;;4846855;29;20057;-88
2022/03/14 10:36:00;;;;;;;11.07;5.80;;;8.70;99.90;;;;;;4833009;29;20389;-90
2022/03/14 10:38:27;;;;;;;15.73;6.28;;;8.60;99.90;;;;;;4870997;29;20493;-90
2022/03/14 10:40:56;;;;;;;8.57;5.57;;;8.70;99.90;;;;;;4845138;29;20394;-88
2022/03/14 10:43:27;;;;;;;9.57;5.90;;;8.70;99.90;;;;;;4868157;29;20098;-90
2022/03/14 10:45:58;;;;;;;10.75;6.45;;;8.70;99.90;;;;;;4870460;29;20044;-90
2022/03/14 10:48:35;;;;;;;10.27;6.60;;;8.70;99.90;;;;;;4864687;29;20045;-91
2022/03/14 10:51:06;;;;;;;12.77;5.85;;;8.80;99.90;;;;;;4876929;29;20464;-91
2022/03/14 10:53:35;;;;;;;12.52;6.32;;;8.80;99.90;;;;;;4877495;29;20087;-91
2022/03/14 10:56:02;;;;;;;12.43;7.07;;;9.00;99.90;;;;;;4865633;29;20507;-91
2022/03/14 10:58:33;;;;;;;12.27;6.75;;;9.00;99.90;;;;;;4867272;29;20049;-89
2022/03/14 11:01:10;;;;;;;13.27;6.90;;;9.00;99.90;;;;;;4881433;29;20057;-90
2022/03/14 11:03:41;;;;;;;12.40;6.38;;;9.10;99.90;;;;;;4886943;29;20057;-91
2022/03/14 11:06:08;;;;;;;13.15;7.35;;;9.20;99.90;;;;;;4847902;29;20056;-86
2022/03/14 11:08:38;;;;;;;9.38;6.30;;;9.20;99.90;;;;;;4841424;29;20045;-87
2022/03/14 11:11:10;;;;;;;10.52;6.28;;;9.30;99.90;;;;;;4873239;29;20105;-94
2022/03/14 11:13:52;;;;;;;12.57;6.20;;;9.40;99.90;;;;;;4864114;29;20049;-90
2022/03/14 11:16:29;;;;;;;10.93;6.03;;;9.40;99.90;;;;;;4863672;29;20466;-91
2022/03/14 11:18:55;;;;;;;;;;;9.40;99.90;;;;;;4846652;29;20053;-90
2022/03/14 11:21:27;;;;;;;7.88;5.03;;;9.40;99.90;;;;;;4844237;29;20035;-89
2022/03/14 11:23:55;;;;;;;10.63;6.03;;;9.40;99.90;;;;;;4869458;29;20063;-90
2022/03/14 11:26:23;;;;;;;8.93;5.50;;;9.40;99.90;;;;;;4852985;29;20045;-90
2022/03/14 11:28:50;;;;;;;11.90;5.38;;;9.40;99.90;;;;;;4838639;29;20045;-90
2022/03/14 11:31:21;;;;;;;11.75;5.43;;;9.40;99.90;;;;;;4840746;29;20128;-89
2022/03/14 11:33:48;;;;;;;11.57;5.63;;;9.40;99.90;;;;;;4854610;29;20390;-88
2022/03/14 11:36:18;;;;;;;10.25;5.28;;;9.40;99.90;;;;;;4879067;29;20049;-84
2022/03/14 11:38:44;;;;;;;11.38;5.57;;;9.50;99.90;;;;;;4835798;29;20044;-88
2022/03/14 11:41:10;;;;;;;8.77;4.77;;;9.40;99.90;;;;;;4865830;29;20053;-88
2022/03/14 11:43:39;;;;;;;14.40;6.07;;;9.40;99.90;;;;;;4883127;29;20459;-89
2022/03/14 11:46:04;;;;;;;9.75;5.32;;;9.40;99.90;;;;;;4846830;29;20054;-85
2022/03/14 11:48:32;;;;;;;7.03;5.50;;;9.40;99.90;;;;;;4861369;29;20052;-88
2022/03/14 11:51:04;;;;;;;8.60;4.15;;;9.40;99.90;;;;;;4862708;29;20136;-89
2022/03/14 11:53:32;;;;;;;9.52;4.97;;;9.40;99.90;;;;;;4861480;29;20080;-88
2022/03/14 11:55:59;;;;;;;10.20;5.18;;;9.40;99.90;;;;;;4867597;29;20053;-87
2022/03/14 11:58:52;;;;;;;8.57;5.63;;;9.40;99.90;;;;;;4865936;29;20052;-86
2022/03/14 12:01:17;;;;;;;9.35;5.72;;;9.40;99.90;;;;;;4875862;29;20049;-84
2022/03/14 12:03:49;;;;;;;6.50;4.77;;;9.40;99.90;;;;;;4858173;29;20053;-87
2022/03/14 12:06:16;;;;;;;9.73;5.13;;;9.40;99.90;;;;;;4854670;29;20048;-87
2022/03/14 12:08:47;;;;;;;8.05;5.28;;;9.40;99.90;;;;;;4831743;29;20046;-87
2022/03/14 12:11:32;;;;;;;12.40;5.00;;;9.50;99.90;;;;;;4888900;29;20504;-87
2022/03/14 12:13:58;;;;;;;9.77;5.53;;;9.50;99.90;;;;;;4847763;29;20052;-86
2022/03/14 12:16:44;;;;;;;10.53;5.87;;;9.50;99.90;;;;;;4866651;29;20053;-86
2022/03/14 12:19:38;;;;;;;10.05;6.30;;;9.50;99.90;;;;;;4849965;29;20140;-86
2022/03/14 12:22:04;;;;;;;13.98;6.80;;;9.50;99.90;;;;;;4868135;29;20146;-87
2022/03/14 12:24:36;;;;;;;10.00;6.90;;;9.50;99.90;;;;;;4892764;29;20056;-86
2022/03/14 12:27:12;;;;;;;8.65;6.78;;;9.50;99.90;;;;;;4871709;29;20117;-87
2022/03/14 12:29:40;;;;;;;12.52;7.47;;;9.60;99.90;;;;;;4890224;29;20057;-86
2022/03/14 12:32:27;;;;;;;14.23;8.43;;;9.60;99.90;;;;;;4867465;29;20420;-85
2022/03/14 12:35:01;;;;;;;10.90;8.43;;;9.60;99.90;;;;;;4876851;29;20048;-85
2022/03/14 12:37:52;;;;;;;12.15;8.40;;;9.60;99.90;;;;;;4871494;29;20120;-86
2022/03/14 12:40:21;;;;;;;13.38;7.82;;;9.60;99.90;;;;;;4868769;29;20087;-85
2022/03/14 12:42:51;;;;;;;12.38;8.43;;;9.60;99.90;;;;;;4883422;29;20133;-86
2022/03/14 12:45:27;;;;;;;14.23;8.23;;;9.80;99.90;;;;;;4895635;29;20061;-85
2022/03/14 12:48:02;;;;;;;13.20;9.65;;;9.90;99.90;;;;;;4881433;29;20113;-85
2022/03/14 12:50:45;;;;;;;17.08;8.27;;;10.00;99.90;;;;;;4871656;29;20045;-91
2022/03/14 12:53:19;;;;;;;12.90;7.95;;;10.10;99.90;;;;;;4874258;29;20075;-87
2022/03/14 12:55:47;;;;;;;13.77;8.48;;;10.20;99.90;;;;;;4870437;29;20056;-86
2022/03/14 12:58:26;;;;;;;13.73;8.68;;;10.30;99.90;;;;;;4895776;29;20513;-86
2022/03/14 13:00:55;;;;;;;15.25;8.52;;;10.30;99.90;;;;;;4892935;29;20109;-87
2022/03/14 13:03:29;;;;;;;11.98;8.27;;;10.40;99.90;;;;;;4851111;29;20413;-87
2022/03/14 13:05:55;;;;;;;12.18;8.00;;;10.50;99.90;;;;;;4846143;29;20053;-88